Terminal Aerodrome Forecast
Issued by NWS Mt. Holly, NJ

Home | Current Version | Previous Version | Text Only | Print | Product List | Glossary On
Versions: 1 2 3 4 5 6 7 8 9 10 11 12
987
FTUS41 KPHI 240523
TAFRDG
TAF
KRDG 240523Z 2406/2506 VRB03KT P6SM SKC
     FM241000 VRB03KT P6SM SCT100 BKN250
     FM241300 19004KT P6SM BKN070 BKN090
      TEMPO 2413/2415 4SM -RA BKN015
     FM241500 19005KT 4SM -RA BKN015 OVC030
     FM241700 19005KT P6SM SCT025 OVC040
     FM250200 22004KT P6SM BKN080=

USA.gov is the U.S. government's official web portal to all federal, state and local government web resources and services.